sensor_id;sensor_type;location;lat;lon;timestamp;P1;durP1;ratioP1;P2;durP2;ratioP2
50495;SDS011;38806;51.554;5.704;2023-04-15T00:00:31;16.77;;;10.93;;
50495;SDS011;38806;51.554;5.704;2023-04-15T00:02:32;15.50;;;9.13;;
50495;SDS011;38806;51.554;5.704;2023-04-15T00:04:33;17.70;;;11.25;;
50495;SDS011;38806;51.554;5.704;2023-04-15T00:06:33;16.88;;;10.50;;
50495;SDS011;38806;51.554;5.704;2023-04-15T00:08:33;23.73;;;10.77;;
50495;SDS011;38806;51.554;5.704;2023-04-15T00:10:33;15.73;;;11.25;;
50495;SDS011;38806;51.554;5.704;2023-04-15T00:12:33;19.88;;;11.35;;
50495;SDS011;38806;51.554;5.704;2023-04-15T00:14:34;16.50;;;11.95;;
50495;SDS011;38806;51.554;5.704;2023-04-15T00:16:35;11.88;;;8.35;;
50495;SDS011;38806;51.554;5.704;2023-04-15T00:18:36;16.73;;;9.98;;
50495;SDS011;38806;51.554;5.704;2023-04-15T00:20:36;18.90;;;10.13;;
50495;SDS011;38806;51.554;5.704;2023-04-15T00:22:36;19.80;;;10.63;;
50495;SDS011;38806;51.554;5.704;2023-04-15T00:24:37;15.57;;;11.68;;
50495;SDS011;38806;51.554;5.704;2023-04-15T00:26:37;16.38;;;9.77;;
50495;SDS011;38806;51.554;5.704;2023-04-15T00:28:37;14.80;;;9.50;;
50495;SDS011;38806;51.554;5.704;2023-04-15T00:30:38;19.05;;;11.32;;
50495;SDS011;38806;51.554;5.704;2023-04-15T00:32:38;15.90;;;9.48;;
50495;SDS011;38806;51.554;5.704;2023-04-15T00:34:38;16.77;;;11.50;;
50495;SDS011;38806;51.554;5.704;2023-04-15T00:36:38;21.63;;;10.95;;
50495;SDS011;38806;51.554;5.704;2023-04-15T00:38:39;18.52;;;11.52;;
50495;SDS011;38806;51.554;5.704;2023-04-15T00:40:39;16.35;;;10.60;;
50495;SDS011;38806;51.554;5.704;2023-04-15T00:42:40;20.52;;;11.05;;
50495;SDS011;38806;51.554;5.704;2023-04-15T00:44:40;17.55;;;10.63;;
50495;SDS011;38806;51.554;5.704;2023-04-15T00:46:41;18.20;;;9.88;;
50495;SDS011;38806;51.554;5.704;2023-04-15T00:48:42;17.80;;;11.43;;
50495;SDS011;38806;51.554;5.704;2023-04-15T00:50:42;21.83;;;12.23;;
50495;SDS011;38806;51.554;5.704;2023-04-15T00:52:43;18.90;;;12.77;;
50495;SDS011;38806;51.554;5.704;2023-04-15T00:54:43;18.23;;;11.60;;
50495;SDS011;38806;51.554;5.704;2023-04-15T00:56:43;24.92;;;12.80;;
50495;SDS011;38806;51.554;5.704;2023-04-15T00:58:43;19.52;;;13.40;;
50495;SDS011;38806;51.554;5.704;2023-04-15T01:00:43;25.25;;;12.88;;
50495;SDS011;38806;51.554;5.704;2023-04-15T01:02:45;19.42;;;12.98;;
50495;SDS011;38806;51.554;5.704;2023-04-15T01:04:45;19.83;;;14.60;;
50495;SDS011;38806;51.554;5.704;2023-04-15T01:06:46;20.73;;;13.32;;
50495;SDS011;38806;51.554;5.704;2023-04-15T01:08:46;29.05;;;14.07;;
50495;SDS011;38806;51.554;5.704;2023-04-15T01:10:46;21.45;;;15.55;;
50495;SDS011;38806;51.554;5.704;2023-04-15T01:12:46;23.73;;;13.55;;
50495;SDS011;38806;51.554;5.704;2023-04-15T01:14:47;19.45;;;12.98;;
50495;SDS011;38806;51.554;5.704;2023-04-15T01:16:47;22.90;;;12.88;;
50495;SDS011;38806;51.554;5.704;2023-04-15T01:18:47;22.15;;;13.30;;
50495;SDS011;38806;51.554;5.704;2023-04-15T01:20:47;22.23;;;12.70;;
50495;SDS011;38806;51.554;5.704;2023-04-15T01:22:48;26.58;;;13.75;;
50495;SDS011;38806;51.554;5.704;2023-04-15T01:24:53;21.83;;;13.13;;
50495;SDS011;38806;51.554;5.704;2023-04-15T01:26:54;27.30;;;15.10;;
50495;SDS011;38806;51.554;5.704;2023-04-15T01:28:54;24.58;;;13.80;;
50495;SDS011;38806;51.554;5.704;2023-04-15T01:31:11;24.10;;;13.57;;
50495;SDS011;38806;51.554;5.704;2023-04-15T01:33:12;22.38;;;15.10;;
50495;SDS011;38806;51.554;5.704;2023-04-15T01:35:12;24.02;;;15.10;;
50495;SDS011;38806;51.554;5.704;2023-04-15T01:37:12;25.05;;;15.02;;
50495;SDS011;38806;51.554;5.704;2023-04-15T01:39:13;24.05;;;15.57;;
50495;SDS011;38806;51.554;5.704;2023-04-15T01:41:13;23.85;;;13.40;;
50495;SDS011;38806;51.554;5.704;2023-04-15T01:43:13;21.90;;;14.48;;
50495;SDS011;38806;51.554;5.704;2023-04-15T01:45:14;33.20;;;16.95;;
50495;SDS011;38806;51.554;5.704;2023-04-15T01:47:14;23.83;;;15.32;;
50495;SDS011;38806;51.554;5.704;2023-04-15T01:49:14;30.00;;;15.00;;
50495;SDS011;38806;51.554;5.704;2023-04-15T01:51:15;25.77;;;14.63;;
50495;SDS011;38806;51.554;5.704;2023-04-15T01:53:15;29.50;;;16.42;;
50495;SDS011;38806;51.554;5.704;2023-04-15T01:55:15;22.48;;;14.55;;
50495;SDS011;38806;51.554;5.704;2023-04-15T01:57:16;26.60;;;15.63;;
50495;SDS011;38806;51.554;5.704;2023-04-15T01:59:16;22.33;;;15.93;;
50495;SDS011;38806;51.554;5.704;2023-04-15T02:01:16;21.77;;;14.88;;
50495;SDS011;38806;51.554;5.704;2023-04-15T02:03:18;26.60;;;14.98;;
50495;SDS011;38806;51.554;5.704;2023-04-15T02:05:18;29.73;;;16.73;;
50495;SDS011;38806;51.554;5.704;2023-04-15T02:07:18;25.13;;;14.80;;
50495;SDS011;38806;51.554;5.704;2023-04-15T02:09:19;25.35;;;13.93;;
50495;SDS011;38806;51.554;5.704;2023-04-15T02:11:19;23.70;;;14.70;;
50495;SDS011;38806;51.554;5.704;2023-04-15T02:13:19;21.85;;;14.13;;
50495;SDS011;38806;51.554;5.704;2023-04-15T02:15:20;25.42;;;15.77;;
50495;SDS011;38806;51.554;5.704;2023-04-15T02:17:20;22.45;;;14.80;;
50495;SDS011;38806;51.554;5.704;2023-04-15T02:19:20;30.92;;;17.58;;
50495;SDS011;38806;51.554;5.704;2023-04-15T02:21:21;24.48;;;15.57;;
50495;SDS011;38806;51.554;5.704;2023-04-15T02:23:21;21.20;;;14.98;;
50495;SDS011;38806;51.554;5.704;2023-04-15T02:25:21;24.65;;;17.00;;
50495;SDS011;38806;51.554;5.704;2023-04-15T02:27:21;25.75;;;15.02;;
50495;SDS011;38806;51.554;5.704;2023-04-15T02:29:22;22.98;;;14.90;;
50495;SDS011;38806;51.554;5.704;2023-04-15T02:31:22;26.77;;;14.48;;
50495;SDS011;38806;51.554;5.704;2023-04-15T02:33:22;26.30;;;14.65;;
50495;SDS011;38806;51.554;5.704;2023-04-15T02:35:23;26.15;;;14.55;;
50495;SDS011;38806;51.554;5.704;2023-04-15T02:37:24;23.55;;;13.77;;
50495;SDS011;38806;51.554;5.704;2023-04-15T02:39:27;21.55;;;13.75;;
50495;SDS011;38806;51.554;5.704;2023-04-15T02:41:28;27.80;;;17.13;;
50495;SDS011;38806;51.554;5.704;2023-04-15T02:43:29;23.80;;;16.30;;
50495;SDS011;38806;51.554;5.704;2023-04-15T02:45:29;27.95;;;15.20;;
50495;SDS011;38806;51.554;5.704;2023-04-15T02:47:29;24.55;;;15.65;;
50495;SDS011;38806;51.554;5.704;2023-04-15T02:49:30;23.15;;;15.30;;
50495;SDS011;38806;51.554;5.704;2023-04-15T02:51:30;32.55;;;16.45;;
50495;SDS011;38806;51.554;5.704;2023-04-15T02:53:31;28.77;;;17.15;;
50495;SDS011;38806;51.554;5.704;2023-04-15T02:55:31;24.27;;;17.02;;
50495;SDS011;38806;51.554;5.704;2023-04-15T02:57:31;26.80;;;16.65;;
50495;SDS011;38806;51.554;5.704;2023-04-15T02:59:32;26.58;;;18.15;;
50495;SDS011;38806;51.554;5.704;2023-04-15T03:01:32;29.92;;;17.60;;
50495;SDS011;38806;51.554;5.704;2023-04-15T03:03:32;29.33;;;20.13;;
50495;SDS011;38806;51.554;5.704;2023-04-15T03:05:32;31.13;;;17.92;;
50495;SDS011;38806;51.554;5.704;2023-04-15T03:07:33;28.10;;;19.27;;
50495;SDS011;38806;51.554;5.704;2023-04-15T03:09:33;32.97;;;19.77;;
50495;SDS011;38806;51.554;5.704;2023-04-15T03:11:34;30.25;;;17.67;;
50495;SDS011;38806;51.554;5.704;2023-04-15T03:13:35;25.92;;;17.33;;
50495;SDS011;38806;51.554;5.704;2023-04-15T03:15:36;36.28;;;19.40;;
50495;SDS011;38806;51.554;5.704;2023-04-15T03:17:36;32.63;;;19.75;;
50495;SDS011;38806;51.554;5.704;2023-04-15T03:19:36;30.95;;;19.42;;
50495;SDS011;38806;51.554;5.704;2023-04-15T03:21:37;25.15;;;16.48;;
50495;SDS011;38806;51.554;5.704;2023-04-15T03:23:37;28.92;;;16.85;;
50495;SDS011;38806;51.554;5.704;2023-04-15T03:25:37;32.33;;;19.85;;
50495;SDS011;38806;51.554;5.704;2023-04-15T03:27:38;26.65;;;17.77;;
50495;SDS011;38806;51.554;5.704;2023-04-15T03:29:38;33.72;;;20.95;;
50495;SDS011;38806;51.554;5.704;2023-04-15T03:31:38;33.30;;;20.58;;
50495;SDS011;38806;51.554;5.704;2023-04-15T03:33:38;30.65;;;17.90;;
50495;SDS011;38806;51.554;5.704;2023-04-15T03:35:38;29.23;;;18.00;;
50495;SDS011;38806;51.554;5.704;2023-04-15T03:37:38;32.45;;;18.15;;
50495;SDS011;38806;51.554;5.704;2023-04-15T03:39:39;31.17;;;19.27;;
50495;SDS011;38806;51.554;5.704;2023-04-15T03:41:39;34.10;;;21.08;;
50495;SDS011;38806;51.554;5.704;2023-04-15T03:43:39;31.00;;;19.15;;
50495;SDS011;38806;51.554;5.704;2023-04-15T03:45:40;29.73;;;17.88;;
50495;SDS011;38806;51.554;5.704;2023-04-15T03:47:40;30.60;;;20.48;;
50495;SDS011;38806;51.554;5.704;2023-04-15T03:49:40;29.95;;;17.73;;
50495;SDS011;38806;51.554;5.704;2023-04-15T03:51:40;31.02;;;18.58;;
50495;SDS011;38806;51.554;5.704;2023-04-15T03:53:40;32.22;;;17.55;;
50495;SDS011;38806;51.554;5.704;2023-04-15T03:55:41;29.38;;;17.92;;
50495;SDS011;38806;51.554;5.704;2023-04-15T03:57:41;28.15;;;17.77;;
50495;SDS011;38806;51.554;5.704;2023-04-15T03:59:41;28.15;;;18.08;;
50495;SDS011;38806;51.554;5.704;2023-04-15T04:01:41;26.17;;;16.60;;
50495;SDS011;38806;51.554;5.704;2023-04-15T04:03:41;29.17;;;16.15;;
50495;SDS011;38806;51.554;5.704;2023-04-15T04:05:42;35.13;;;20.15;;
50495;SDS011;38806;51.554;5.704;2023-04-15T04:07:43;28.85;;;18.23;;
50495;SDS011;38806;51.554;5.704;2023-04-15T04:09:43;30.13;;;20.42;;
50495;SDS011;38806;51.554;5.704;2023-04-15T04:11:43;26.10;;;16.60;;
50495;SDS011;38806;51.554;5.704;2023-04-15T04:13:44;30.15;;;18.67;;
50495;SDS011;38806;51.554;5.704;2023-04-15T04:15:45;28.73;;;17.15;;
50495;SDS011;38806;51.554;5.704;2023-04-15T04:17:45;30.25;;;18.83;;
50495;SDS011;38806;51.554;5.704;2023-04-15T04:19:45;30.63;;;17.80;;
50495;SDS011;38806;51.554;5.704;2023-04-15T04:21:45;31.98;;;19.33;;
50495;SDS011;38806;51.554;5.704;2023-04-15T04:23:46;29.60;;;19.33;;
50495;SDS011;38806;51.554;5.704;2023-04-15T04:25:46;35.47;;;19.00;;
50495;SDS011;38806;51.554;5.704;2023-04-15T04:27:46;34.42;;;19.17;;
50495;SDS011;38806;51.554;5.704;2023-04-15T04:29:46;29.35;;;16.45;;
50495;SDS011;38806;51.554;5.704;2023-04-15T04:31:48;27.13;;;18.17;;
50495;SDS011;38806;51.554;5.704;2023-04-15T04:33:49;25.58;;;17.88;;
50495;SDS011;38806;51.554;5.704;2023-04-15T04:35:49;31.50;;;19.67;;
50495;SDS011;38806;51.554;5.704;2023-04-15T04:37:49;29.65;;;17.73;;
50495;SDS011;38806;51.554;5.704;2023-04-15T04:39:49;35.33;;;19.98;;
50495;SDS011;38806;51.554;5.704;2023-04-15T04:41:50;35.88;;;19.35;;
50495;SDS011;38806;51.554;5.704;2023-04-15T04:43:51;37.95;;;21.15;;
50495;SDS011;38806;51.554;5.704;2023-04-15T04:45:51;34.85;;;20.35;;
50495;SDS011;38806;51.554;5.704;2023-04-15T04:47:51;31.42;;;18.15;;
50495;SDS011;38806;51.554;5.704;2023-04-15T04:49:51;32.55;;;19.38;;
50495;SDS011;38806;51.554;5.704;2023-04-15T04:51:52;32.10;;;18.77;;
50495;SDS011;38806;51.554;5.704;2023-04-15T04:53:52;32.20;;;19.30;;
50495;SDS011;38806;51.554;5.704;2023-04-15T04:55:53;33.72;;;20.05;;
50495;SDS011;38806;51.554;5.704;2023-04-15T04:57:53;33.33;;;18.23;;
50495;SDS011;38806;51.554;5.704;2023-04-15T04:59:53;36.38;;;21.58;;
50495;SDS011;38806;51.554;5.704;2023-04-15T05:01:53;31.45;;;19.55;;
50495;SDS011;38806;51.554;5.704;2023-04-15T05:03:53;32.28;;;19.42;;
50495;SDS011;38806;51.554;5.704;2023-04-15T05:05:53;29.55;;;19.00;;
50495;SDS011;38806;51.554;5.704;2023-04-15T05:07:54;31.98;;;19.88;;
50495;SDS011;38806;51.554;5.704;2023-04-15T05:09:54;32.03;;;18.27;;
50495;SDS011;38806;51.554;5.704;2023-04-15T05:11:54;30.75;;;19.25;;
50495;SDS011;38806;51.554;5.704;2023-04-15T05:13:55;27.92;;;16.75;;
50495;SDS011;38806;51.554;5.704;2023-04-15T05:15:57;29.60;;;19.40;;
50495;SDS011;38806;51.554;5.704;2023-04-15T05:17:57;31.98;;;18.92;;
50495;SDS011;38806;51.554;5.704;2023-04-15T05:19:57;31.02;;;17.77;;
50495;SDS011;38806;51.554;5.704;2023-04-15T05:21:57;39.42;;;20.60;;
50495;SDS011;38806;51.554;5.704;2023-04-15T05:23:57;29.75;;;18.48;;
50495;SDS011;38806;51.554;5.704;2023-04-15T05:25:58;32.22;;;18.83;;
50495;SDS011;38806;51.554;5.704;2023-04-15T05:27:58;34.75;;;19.17;;
50495;SDS011;38806;51.554;5.704;2023-04-15T05:29:58;36.67;;;21.30;;
50495;SDS011;38806;51.554;5.704;2023-04-15T05:31:58;29.40;;;19.00;;
50495;SDS011;38806;51.554;5.704;2023-04-15T05:33:58;35.00;;;20.52;;
50495;SDS011;38806;51.554;5.704;2023-04-15T05:35:59;30.55;;;18.23;;
50495;SDS011;38806;51.554;5.704;2023-04-15T05:37:59;29.83;;;17.20;;
50495;SDS011;38806;51.554;5.704;2023-04-15T05:39:59;29.73;;;18.17;;
50495;SDS011;38806;51.554;5.704;2023-04-15T05:41:59;26.25;;;18.20;;
50495;SDS011;38806;51.554;5.704;2023-04-15T05:44:00;31.08;;;20.50;;
50495;SDS011;38806;51.554;5.704;2023-04-15T05:46:00;31.90;;;21.20;;
50495;SDS011;38806;51.554;5.704;2023-04-15T05:48:00;33.40;;;20.52;;
50495;SDS011;38806;51.554;5.704;2023-04-15T05:50:01;32.15;;;18.35;;
50495;SDS011;38806;51.554;5.704;2023-04-15T05:52:01;31.73;;;21.92;;
50495;SDS011;38806;51.554;5.704;2023-04-15T05:54:01;30.02;;;18.77;;
50495;SDS011;38806;51.554;5.704;2023-04-15T05:56:01;31.55;;;19.10;;
50495;SDS011;38806;51.554;5.704;2023-04-15T05:58:02;31.85;;;19.23;;
50495;SDS011;38806;51.554;5.704;2023-04-15T06:00:03;32.00;;;19.38;;
50495;SDS011;38806;51.554;5.704;2023-04-15T06:02:04;32.30;;;19.58;;
50495;SDS011;38806;51.554;5.704;2023-04-15T06:04:05;28.13;;;16.50;;
50495;SDS011;38806;51.554;5.704;2023-04-15T06:06:05;29.30;;;17.13;;
50495;SDS011;38806;51.554;5.704;2023-04-15T06:08:06;28.75;;;17.27;;
50495;SDS011;38806;51.554;5.704;2023-04-15T06:10:07;26.42;;;16.73;;
50495;SDS011;38806;51.554;5.704;2023-04-15T06:12:07;24.80;;;16.08;;
50495;SDS011;38806;51.554;5.704;2023-04-15T06:14:11;29.48;;;17.83;;
50495;SDS011;38806;51.554;5.704;2023-04-15T06:16:11;30.90;;;18.35;;
50495;SDS011;38806;51.554;5.704;2023-04-15T06:18:11;26.73;;;18.90;;
50495;SDS011;38806;51.554;5.704;2023-04-15T06:20:12;26.50;;;16.25;;
50495;SDS011;38806;51.554;5.704;2023-04-15T06:22:12;29.52;;;20.13;;
50495;SDS011;38806;51.554;5.704;2023-04-15T06:24:12;27.75;;;17.08;;
50495;SDS011;38806;51.554;5.704;2023-04-15T06:26:12;28.48;;;16.75;;
50495;SDS011;38806;51.554;5.704;2023-04-15T06:28:12;28.77;;;17.23;;
50495;SDS011;38806;51.554;5.704;2023-04-15T06:30:12;26.88;;;15.82;;
50495;SDS011;38806;51.554;5.704;2023-04-15T06:32:13;29.10;;;17.33;;
50495;SDS011;38806;51.554;5.704;2023-04-15T06:34:13;30.42;;;18.55;;
50495;SDS011;38806;51.554;5.704;2023-04-15T06:36:13;30.17;;;18.10;;
50495;SDS011;38806;51.554;5.704;2023-04-15T06:38:14;31.10;;;18.13;;
50495;SDS011;38806;51.554;5.704;2023-04-15T06:40:14;26.17;;;15.70;;
50495;SDS011;38806;51.554;5.704;2023-04-15T06:42:15;27.25;;;16.60;;
50495;SDS011;38806;51.554;5.704;2023-04-15T06:44:15;30.13;;;16.52;;
50495;SDS011;38806;51.554;5.704;2023-04-15T06:46:15;27.95;;;16.02;;
50495;SDS011;38806;51.554;5.704;2023-04-15T06:48:15;26.42;;;17.77;;
50495;SDS011;38806;51.554;5.704;2023-04-15T06:50:16;25.60;;;16.90;;
50495;SDS011;38806;51.554;5.704;2023-04-15T06:52:17;26.98;;;17.33;;
50495;SDS011;38806;51.554;5.704;2023-04-15T06:54:17;29.10;;;17.23;;
50495;SDS011;38806;51.554;5.704;2023-04-15T06:56:17;26.08;;;17.77;;
50495;SDS011;38806;51.554;5.704;2023-04-15T06:58:17;29.92;;;18.52;;
50495;SDS011;38806;51.554;5.704;2023-04-15T07:00:18;28.00;;;16.63;;
50495;SDS011;38806;51.554;5.704;2023-04-15T07:02:18;32.92;;;17.60;;
50495;SDS011;38806;51.554;5.704;2023-04-15T07:04:18;23.35;;;17.45;;
50495;SDS011;38806;51.554;5.704;2023-04-15T07:06:19;23.73;;;15.38;;
50495;SDS011;38806;51.554;5.704;2023-04-15T07:08:21;23.38;;;18.70;;
50495;SDS011;38806;51.554;5.704;2023-04-15T07:10:21;29.65;;;17.63;;
50495;SDS011;38806;51.554;5.704;2023-04-15T07:12:22;29.13;;;17.60;;
50495;SDS011;38806;51.554;5.704;2023-04-15T07:14:23;26.40;;;16.63;;
50495;SDS011;38806;51.554;5.704;2023-04-15T07:16:23;28.63;;;16.92;;
50495;SDS011;38806;51.554;5.704;2023-04-15T07:18:23;28.00;;;16.08;;
50495;SDS011;38806;51.554;5.704;2023-04-15T07:20:24;21.70;;;15.25;;
50495;SDS011;38806;51.554;5.704;2023-04-15T07:22:24;23.88;;;15.75;;
50495;SDS011;38806;51.554;5.704;2023-04-15T07:24:25;26.35;;;17.02;;
50495;SDS011;38806;51.554;5.704;2023-04-15T07:26:25;23.55;;;15.25;;
50495;SDS011;38806;51.554;5.704;2023-04-15T07:28:26;22.45;;;16.10;;
50495;SDS011;38806;51.554;5.704;2023-04-15T07:30:26;24.45;;;16.75;;
50495;SDS011;38806;51.554;5.704;2023-04-15T07:32:26;20.42;;;14.25;;
50495;SDS011;38806;51.554;5.704;2023-04-15T07:34:26;24.42;;;15.75;;
50495;SDS011;38806;51.554;5.704;2023-04-15T07:36:27;25.23;;;13.00;;
50495;SDS011;38806;51.554;5.704;2023-04-15T07:38:28;22.27;;;14.02;;
50495;SDS011;38806;51.554;5.704;2023-04-15T07:40:28;18.45;;;13.25;;
50495;SDS011;38806;51.554;5.704;2023-04-15T07:42:29;21.40;;;13.90;;
50495;SDS011;38806;51.554;5.704;2023-04-15T07:44:29;19.02;;;13.20;;
50495;SDS011;38806;51.554;5.704;2023-04-15T07:46:30;22.35;;;14.93;;
50495;SDS011;38806;51.554;5.704;2023-04-15T07:48:30;24.65;;;15.35;;
50495;SDS011;38806;51.554;5.704;2023-04-15T07:50:31;19.55;;;13.45;;
50495;SDS011;38806;51.554;5.704;2023-04-15T07:52:31;20.92;;;15.38;;
50495;SDS011;38806;51.554;5.704;2023-04-15T07:54:34;20.42;;;13.23;;
50495;SDS011;38806;51.554;5.704;2023-04-15T07:56:34;21.20;;;15.63;;
50495;SDS011;38806;51.554;5.704;2023-04-15T07:58:34;19.48;;;12.88;;
50495;SDS011;38806;51.554;5.704;2023-04-15T08:00:35;17.75;;;12.57;;
50495;SDS011;38806;51.554;5.704;2023-04-15T08:02:37;19.05;;;11.15;;
50495;SDS011;38806;51.554;5.704;2023-04-15T08:04:37;15.13;;;10.05;;
50495;SDS011;38806;51.554;5.704;2023-04-15T08:06:37;15.13;;;9.63;;
50495;SDS011;38806;51.554;5.704;2023-04-15T08:08:38;13.88;;;10.02;;
50495;SDS011;38806;51.554;5.704;2023-04-15T08:10:38;15.65;;;10.00;;
50495;SDS011;38806;51.554;5.704;2023-04-15T08:12:39;15.77;;;10.80;;
50495;SDS011;38806;51.554;5.704;2023-04-15T08:14:39;15.10;;;9.60;;
50495;SDS011;38806;51.554;5.704;2023-04-15T08:16:39;13.77;;;9.20;;
50495;SDS011;38806;51.554;5.704;2023-04-15T08:18:40;15.85;;;9.90;;
50495;SDS011;38806;51.554;5.704;2023-04-15T08:20:40;14.95;;;10.07;;
50495;SDS011;38806;51.554;5.704;2023-04-15T08:22:41;14.88;;;9.93;;
50495;SDS011;38806;51.554;5.704;2023-04-15T08:24:41;16.83;;;10.65;;
50495;SDS011;38806;51.554;5.704;2023-04-15T08:26:41;14.18;;;8.80;;
50495;SDS011;38806;51.554;5.704;2023-04-15T08:28:42;15.23;;;9.35;;
50495;SDS011;38806;51.554;5.704;2023-04-15T08:30:43;12.45;;;9.05;;
50495;SDS011;38806;51.554;5.704;2023-04-15T08:32:46;13.82;;;7.65;;
50495;SDS011;38806;51.554;5.704;2023-04-15T08:34:47;13.15;;;8.57;;
50495;SDS011;38806;51.554;5.704;2023-04-15T08:36:47;12.45;;;7.80;;
50495;SDS011;38806;51.554;5.704;2023-04-15T08:38:47;14.45;;;8.00;;
50495;SDS011;38806;51.554;5.704;2023-04-15T08:40:47;12.23;;;7.78;;
50495;SDS011;38806;51.554;5.704;2023-04-15T08:42:48;11.25;;;6.55;;
50495;SDS011;38806;51.554;5.704;2023-04-15T08:44:48;11.90;;;7.93;;
50495;SDS011;38806;51.554;5.704;2023-04-15T08:46:48;11.88;;;7.45;;
50495;SDS011;38806;51.554;5.704;2023-04-15T08:48:49;13.80;;;8.80;;
50495;SDS011;38806;51.554;5.704;2023-04-15T08:50:49;12.30;;;8.07;;
50495;SDS011;38806;51.554;5.704;2023-04-15T08:52:52;11.95;;;8.30;;
50495;SDS011;38806;51.554;5.704;2023-04-15T08:54:56;10.50;;;7.28;;
50495;SDS011;38806;51.554;5.704;2023-04-15T08:56:57;14.18;;;8.15;;
50495;SDS011;38806;51.554;5.704;2023-04-15T08:58:58;10.50;;;7.30;;
50495;SDS011;38806;51.554;5.704;2023-04-15T09:00:59;12.77;;;7.80;;
50495;SDS011;38806;51.554;5.704;2023-04-15T09:03:00;12.60;;;7.80;;
50495;SDS011;38806;51.554;5.704;2023-04-15T09:05:01;8.70;;;6.78;;
50495;SDS011;38806;51.554;5.704;2023-04-15T09:07:03;11.70;;;6.00;;
50495;SDS011;38806;51.554;5.704;2023-04-15T09:09:04;9.90;;;6.63;;
50495;SDS011;38806;51.554;5.704;2023-04-15T09:11:04;9.63;;;6.70;;
50495;SDS011;38806;51.554;5.704;2023-04-15T09:13:04;10.40;;;6.82;;
50495;SDS011;38806;51.554;5.704;2023-04-15T09:15:04;9.52;;;5.82;;
50495;SDS011;38806;51.554;5.704;2023-04-15T09:17:05;9.25;;;5.82;;
50495;SDS011;38806;51.554;5.704;2023-04-15T09:19:19;6.68;;;4.45;;
50495;SDS011;38806;51.554;5.704;2023-04-15T09:21:19;10.60;;;4.03;;
50495;SDS011;38806;51.554;5.704;2023-04-15T09:23:20;6.63;;;4.70;;
50495;SDS011;38806;51.554;5.704;2023-04-15T09:27:20;5.43;;;3.33;;
50495;SDS011;38806;51.554;5.704;2023-04-15T09:29:21;8.10;;;3.90;;
50495;SDS011;38806;51.554;5.704;2023-04-15T09:31:28;7.28;;;4.75;;
50495;SDS011;38806;51.554;5.704;2023-04-15T09:33:28;6.68;;;4.20;;
50495;SDS011;38806;51.554;5.704;2023-04-15T09:35:29;6.32;;;4.32;;
50495;SDS011;38806;51.554;5.704;2023-04-15T09:37:35;6.50;;;4.40;;
50495;SDS011;38806;51.554;5.704;2023-04-15T09:39:48;10.68;;;6.28;;
50495;SDS011;38806;51.554;5.704;2023-04-15T09:42:05;8.02;;;5.28;;
50495;SDS011;38806;51.554;5.704;2023-04-15T09:44:06;8.50;;;5.68;;
50495;SDS011;38806;51.554;5.704;2023-04-15T09:46:06;7.38;;;4.43;;
50495;SDS011;38806;51.554;5.704;2023-04-15T09:50:17;7.63;;;4.40;;
50495;SDS011;38806;51.554;5.704;2023-04-15T09:52:17;5.70;;;4.32;;
50495;SDS011;38806;51.554;5.704;2023-04-15T09:54:20;8.43;;;3.50;;
50495;SDS011;38806;51.554;5.704;2023-04-15T09:56:21;6.75;;;4.30;;
50495;SDS011;38806;51.554;5.704;2023-04-15T10:00:22;5.90;;;3.42;;
50495;SDS011;38806;51.554;5.704;2023-04-15T10:02:22;6.93;;;3.45;;
50495;SDS011;38806;51.554;5.704;2023-04-15T10:04:23;5.25;;;3.60;;
50495;SDS011;38806;51.554;5.704;2023-04-15T10:06:26;6.07;;;3.85;;
50495;SDS011;38806;51.554;5.704;2023-04-15T10:08:27;7.40;;;4.47;;
50495;SDS011;38806;51.554;5.704;2023-04-15T10:10:28;5.82;;;3.20;;
50495;SDS011;38806;51.554;5.704;2023-04-15T10:12:28;5.57;;;3.63;;
50495;SDS011;38806;51.554;5.704;2023-04-15T10:14:31;5.53;;;2.90;;
50495;SDS011;38806;51.554;5.704;2023-04-15T10:16:32;5.80;;;3.50;;
50495;SDS011;38806;51.554;5.704;2023-04-15T10:18:34;4.50;;;2.47;;
50495;SDS011;38806;51.554;5.704;2023-04-15T10:20:35;7.55;;;2.75;;
50495;SDS011;38806;51.554;5.704;2023-04-15T10:22:35;5.15;;;3.30;;
50495;SDS011;38806;51.554;5.704;2023-04-15T10:24:36;4.70;;;2.88;;
50495;SDS011;38806;51.554;5.704;2023-04-15T10:26:37;6.55;;;3.40;;
50495;SDS011;38806;51.554;5.704;2023-04-15T10:28:38;6.18;;;3.08;;
50495;SDS011;38806;51.554;5.704;2023-04-15T10:30:38;6.77;;;3.33;;
50495;SDS011;38806;51.554;5.704;2023-04-15T10:32:38;5.13;;;2.65;;
50495;SDS011;38806;51.554;5.704;2023-04-15T10:34:39;4.90;;;2.28;;
50495;SDS011;38806;51.554;5.704;2023-04-15T10:36:39;5.28;;;3.42;;
50495;SDS011;38806;51.554;5.704;2023-04-15T10:38:41;4.10;;;2.67;;
50495;SDS011;38806;51.554;5.704;2023-04-15T10:40:42;4.30;;;2.60;;
50495;SDS011;38806;51.554;5.704;2023-04-15T10:42:44;4.47;;;2.60;;
50495;SDS011;38806;51.554;5.704;2023-04-15T10:44:48;4.60;;;2.85;;
50495;SDS011;38806;51.554;5.704;2023-04-15T10:46:50;6.53;;;2.70;;
50495;SDS011;38806;51.554;5.704;2023-04-15T10:48:51;5.53;;;3.13;;
50495;SDS011;38806;51.554;5.704;2023-04-15T10:50:55;5.65;;;3.00;;
50495;SDS011;38806;51.554;5.704;2023-04-15T10:52:55;5.63;;;3.25;;
50495;SDS011;38806;51.554;5.704;2023-04-15T10:59:04;6.80;;;3.70;;
50495;SDS011;38806;51.554;5.704;2023-04-15T11:01:04;6.00;;;3.45;;
50495;SDS011;38806;51.554;5.704;2023-04-15T11:03:05;5.67;;;2.77;;
50495;SDS011;38806;51.554;5.704;2023-04-15T11:05:06;5.47;;;3.00;;
50495;SDS011;38806;51.554;5.704;2023-04-15T11:07:06;3.67;;;2.28;;
50495;SDS011;38806;51.554;5.704;2023-04-15T11:09:06;4.90;;;2.58;;
50495;SDS011;38806;51.554;5.704;2023-04-15T11:11:08;7.07;;;3.35;;
50495;SDS011;38806;51.554;5.704;2023-04-15T11:17:30;6.68;;;4.05;;
50495;SDS011;38806;51.554;5.704;2023-04-15T11:19:34;6.32;;;3.25;;
50495;SDS011;38806;51.554;5.704;2023-04-15T11:21:34;6.95;;;3.40;;
50495;SDS011;38806;51.554;5.704;2023-04-15T11:23:41;15.52;;;3.75;;
50495;SDS011;38806;51.554;5.704;2023-04-15T11:25:48;4.85;;;3.03;;
50495;SDS011;38806;51.554;5.704;2023-04-15T11:27:49;5.47;;;3.20;;
50495;SDS011;38806;51.554;5.704;2023-04-15T11:29:49;5.03;;;3.13;;
50495;SDS011;38806;51.554;5.704;2023-04-15T11:31:49;4.65;;;2.42;;
50495;SDS011;38806;51.554;5.704;2023-04-15T11:33:54;4.53;;;2.08;;
50495;SDS011;38806;51.554;5.704;2023-04-15T11:35:54;7.00;;;3.00;;
50495;SDS011;38806;51.554;5.704;2023-04-15T11:37:54;5.70;;;2.85;;
50495;SDS011;38806;51.554;5.704;2023-04-15T11:39:55;4.72;;;2.83;;
50495;SDS011;38806;51.554;5.704;2023-04-15T11:41:55;5.70;;;3.00;;
50495;SDS011;38806;51.554;5.704;2023-04-15T11:43:55;5.03;;;2.30;;
50495;SDS011;38806;51.554;5.704;2023-04-15T11:46:00;6.97;;;2.85;;
50495;SDS011;38806;51.554;5.704;2023-04-15T11:48:10;6.05;;;2.65;;
50495;SDS011;38806;51.554;5.704;2023-04-15T11:52:14;3.10;;;1.70;;
50495;SDS011;38806;51.554;5.704;2023-04-15T11:54:17;6.57;;;2.97;;
50495;SDS011;38806;51.554;5.704;2023-04-15T11:56:22;3.83;;;2.05;;
50495;SDS011;38806;51.554;5.704;2023-04-15T11:58:23;5.38;;;2.65;;
50495;SDS011;38806;51.554;5.704;2023-04-15T12:00:23;5.47;;;2.90;;
50495;SDS011;38806;51.554;5.704;2023-04-15T12:02:29;4.68;;;2.33;;
50495;SDS011;38806;51.554;5.704;2023-04-15T12:04:30;5.22;;;2.30;;
50495;SDS011;38806;51.554;5.704;2023-04-15T12:06:31;4.47;;;2.43;;
50495;SDS011;38806;51.554;5.704;2023-04-15T12:08:49;4.05;;;2.22;;